Terminal Aerodrome Forecast
Issued by NWS

Home | Current Version | Previous Version | Text Only | Print | Product List | Glossary On
Versions: 1 2 3 4 5 6 7 8 9 10 11 12 13 14 15 16 17 18 19 20 21
000
FTAK31 PAJN 221100
TAFAWG
TAF
PAWG 221123Z 2212/2312 24005KT 6SM -SHRA BKN040 OVC050
     FM221500 13007KT P6SM -SHRA SCT015 BKN030 OVC050
     FM222000 12008KT P6SM -SHRA SCT025 OVC040
     FM230000 14007KT P6SM -SHRA SCT025 OVC045
      AMD LTD TO CLD VIS AND WIND 2212/2215=

USA.gov is the U.S. government's official web portal to all federal, state and local government web resources and services.